Time;durP1;ratioP1;P1;durP2;ratioP2;P2;SDS_P1;SDS_P2;PMS_P1;PMS_P2;Temp;Humidity;BMP_temperature;BMP_pressure;BME280_temperature;BME280_humidity;BME280_pressure;Samples;Min_cycle;Max_cycle;Signal;HPM_P1;HPM_P2
2022/03/23 00:00:22;;;;;;;;;;;0.60;99.90;;;;;;5097538;28;19951;-68
2022/03/23 00:02:48;;;;;;;;;;;0.50;99.90;;;;;;5100641;28;20010;-68
2022/03/23 00:05:17;;;;;;;;;;;0.40;99.90;;;;;;5092000;28;19924;-69
2022/03/23 00:07:44;;;;;;;;;;;0.30;99.90;;;;;;5079675;28;19986;-69
2022/03/23 00:10:11;;;;;;;;;;;0.20;99.90;;;;;;5106436;28;19945;-68
2022/03/23 00:12:42;;;;;;;;;;;0.10;99.90;;;;;;5093364;28;19924;-68
2022/03/23 00:15:09;;;;;;;;;;;0.10;99.90;;;;;;5079193;28;19965;-68
2022/03/23 00:17:36;;;;;;;;;;;0.00;99.90;;;;;;5092349;28;19920;-69
2022/03/23 00:20:04;;;;;;;;;;;0.00;99.90;;;;;;5092521;28;19927;-69
2022/03/23 00:22:31;;;;;;;;;;;0.00;99.90;;;;;;5091790;28;19920;-69
2022/03/23 00:24:58;;;;;;;;;;;0.00;99.90;;;;;;5101451;28;19993;-69
2022/03/23 00:27:28;;;;;;;;;;;0.00;99.90;;;;;;5101715;28;20006;-70
2022/03/23 00:29:54;;;;;;;;;;;0.10;99.90;;;;;;5111620;28;20010;-69
2022/03/23 00:32:21;;;;;;;;;;;0.20;99.90;;;;;;5098443;28;19959;-69
2022/03/23 00:34:50;;;;;;;;;;;0.30;99.90;;;;;;5092218;28;19923;-69
2022/03/23 00:37:20;;;;;;;;;;;0.40;99.90;;;;;;5087267;28;19919;-70
2022/03/23 00:39:50;;;;;;;;;;;0.40;99.90;;;;;;5111231;28;19951;-69
2022/03/23 00:42:20;;;;;;;;;;;0.40;99.90;;;;;;5109907;28;19920;-68
2022/03/23 00:44:46;;;;;;;;;;;0.50;99.90;;;;;;5109276;28;20010;-69
2022/03/23 00:47:14;;;;;;;;;;;0.50;99.90;;;;;;5082506;28;20362;-69
2022/03/23 00:49:41;;;;;;;;;;;0.50;99.90;;;;;;5106448;28;19919;-68
2022/03/23 00:52:07;;;;;;;;;;;0.50;99.90;;;;;;5091582;28;19920;-69
2022/03/23 00:54:34;;;;;;;;;;;0.50;99.90;;;;;;5074543;28;19959;-69
2022/03/23 00:57:05;;;;;;;;;;;0.50;99.90;;;;;;5073834;28;19920;-69
2022/03/23 00:59:33;;;;;;;;;;;0.40;99.90;;;;;;5092457;28;19921;-69
2022/03/23 01:02:00;;;;;;;;;;;0.30;99.90;;;;;;5103826;28;19958;-69
2022/03/23 01:04:28;;;;;;;;;;;0.30;99.90;;;;;;5108224;28;19919;-69
2022/03/23 01:06:55;;;;;;;;;;;0.20;99.90;;;;;;5096233;28;19986;-70
2022/03/23 01:09:23;;;;;;;;;;;0.20;99.90;;;;;;5110725;28;20589;-69
2022/03/23 01:11:50;;;;;;;;;;;0.20;99.90;;;;;;5079628;28;20368;-69
2022/03/23 01:14:21;;;;;;;;;;;0.30;99.90;;;;;;5091629;28;19926;-69
2022/03/23 01:16:50;;;;;;;;;;;0.30;99.90;;;;;;5098103;28;19972;-70
2022/03/23 01:19:17;;;;;;;;;;;0.50;99.90;;;;;;5092194;28;19924;-70
2022/03/23 01:21:44;;;;;;;;;;;0.60;99.90;;;;;;5091838;28;19924;-69
2022/03/23 01:24:11;;;;;;;;;;;0.70;99.90;;;;;;5092284;28;20015;-69
2022/03/23 01:26:37;;;;;;;;;;;0.70;99.90;;;;;;5091527;28;19963;-68
2022/03/23 01:29:04;;;;;;;;;;;0.70;99.90;;;;;;5104612;28;20540;-69
2022/03/23 01:31:31;;;;;;;;;;;0.50;99.90;;;;;;5093263;28;19959;-69
2022/03/23 01:33:59;;;;;;;;;;;0.30;99.90;;;;;;5104453;28;19930;-69
2022/03/23 01:36:26;;;;;;;;;;;0.10;99.90;;;;;;5101999;28;20297;-68
2022/03/23 01:38:53;;;;;;;;;;;0.00;99.90;;;;;;5101151;28;20051;-68
2022/03/23 01:41:20;;;;;;;;;;;-0.20;99.90;;;;;;5108422;28;19947;-69
2022/03/23 01:43:47;;;;;;;;;;;-0.30;99.90;;;;;;5108776;28;20006;-69
2022/03/23 01:46:18;;;;;;;;;;;-0.50;99.90;;;;;;5095277;28;19919;-69
2022/03/23 01:48:45;;;;;;;;;;;-0.50;99.90;;;;;;5101047;28;20015;-69
2022/03/23 01:51:15;;;;;;;;;;;-0.60;99.90;;;;;;5091372;28;19955;-69
2022/03/23 01:53:41;;;;;;;;;;;-0.70;99.90;;;;;;5086786;28;19932;-69
2022/03/23 01:56:10;;;;;;;;;;;-0.80;99.90;;;;;;5090328;28;19968;-68
2022/03/23 01:58:36;;;;;;;;;;;-0.80;99.90;;;;;;5073239;28;19927;-69
2022/03/23 02:01:07;;;;;;;;;;;-1.00;99.90;;;;;;5091444;28;19974;-69
2022/03/23 02:03:34;;;;;;;;;;;-1.10;99.90;;;;;;5090846;28;19920;-69
2022/03/23 02:06:00;;;;;;;;;;;-1.10;99.90;;;;;;5092196;28;19928;-69
2022/03/23 02:08:27;;;;;;;;;;;-1.10;99.90;;;;;;5091408;28;19920;-69
2022/03/23 02:10:55;;;;;;;;;;;-1.10;99.90;;;;;;5091162;28;19970;-69
2022/03/23 02:13:22;;;;;;;;;;;-1.10;99.90;;;;;;5090352;28;19920;-69
2022/03/23 02:15:49;;;;;;;;;;;-1.10;99.90;;;;;;5089151;28;20550;-69
2022/03/23 02:18:16;;;;;;;;;;;-1.10;99.90;;;;;;5098588;28;20014;-69
2022/03/23 02:20:43;;;;;;;;;;;-1.10;99.90;;;;;;5088421;28;20000;-69
2022/03/23 02:23:10;;;;;;;;;;;-1.10;99.90;;;;;;5098998;28;19973;-69
2022/03/23 02:25:44;;;;;;;;;;;-1.10;99.90;;;;;;5091427;28;20370;-68
2022/03/23 02:28:14;;;;;;;;;;;-1.10;99.90;;;;;;5073570;28;20454;-69
2022/03/23 02:30:41;;;;;;;;;;;-1.10;99.90;;;;;;5094362;28;19920;-68
2022/03/23 02:33:09;;;;;;;;;;;-1.10;99.90;;;;;;5096451;28;19927;-69
2022/03/23 02:35:36;;;;;;;;;;;-1.10;99.90;;;;;;5098673;28;19919;-69
2022/03/23 02:38:02;;;;;;;;;;;-1.10;99.90;;;;;;5104246;28;19962;-68
2022/03/23 02:40:30;;;;;;;;;;;-1.20;99.90;;;;;;5095599;28;20010;-69
2022/03/23 02:42:56;;;;;;;;;;;-1.30;99.90;;;;;;5103100;28;19959;-68
2022/03/23 02:45:23;;;;;;;;;;;-1.40;99.90;;;;;;5095167;28;19927;-69
2022/03/23 02:47:50;;;;;;;;;;;-1.40;99.90;;;;;;5110222;28;19923;-69
2022/03/23 02:50:17;;;;;;;;;;;-1.30;99.90;;;;;;5109534;28;19954;-69
2022/03/23 03:03:53;;;;;;;;;;;-1.20;99.90;;;;;;5111604;28;19927;-69
2022/03/23 03:06:20;;;;;;;;;;;-1.10;99.90;;;;;;5098586;28;20019;-69
2022/03/23 03:08:49;;;;;;;;;;;-1.00;99.90;;;;;;5110651;28;20613;-69
2022/03/23 03:11:18;;;;;;;;;;;-0.90;99.90;;;;;;5095860;28;19920;-69
2022/03/23 03:13:48;;;;;;;;;;;-0.70;99.90;;;;;;5100884;28;19923;-69
2022/03/23 03:16:16;;;;;;;;;;;-0.70;99.90;;;;;;5100823;28;19919;-69
2022/03/23 03:18:43;;;;;;;;;;;-0.50;99.90;;;;;;5093572;28;19930;-69
2022/03/23 03:21:10;;;;;;;;;;;-0.50;99.90;;;;;;5094280;28;19920;-69
2022/03/23 03:23:37;;;;;;;;;;;-0.30;99.90;;;;;;5102398;28;20108;-69
2022/03/23 03:26:06;;;;;;;;;;;-0.20;99.90;;;;;;5094213;28;19970;-69
2022/03/23 03:28:36;;;;;;;;;;;-0.20;99.90;;;;;;5104024;28;19962;-70
2022/03/23 03:31:04;;;;;;;;;;;-0.20;99.90;;;;;;5111020;28;19919;-69
2022/03/23 03:33:31;;;;;;;;;;;-0.40;99.90;;;;;;5094142;28;19930;-69
2022/03/23 03:35:58;;;;;;;;;;;-0.40;99.90;;;;;;5093937;28;20416;-69
2022/03/23 03:38:24;;;;;;;;;;;-0.50;99.90;;;;;;5099857;28;20426;-69
2022/03/23 03:40:52;;;;;;;;;;;-0.60;99.90;;;;;;5100736;28;19920;-69
2022/03/23 03:43:18;;;;;;;;;;;-0.70;99.90;;;;;;5099833;28;19970;-69
2022/03/23 03:45:45;;;;;;;;;;;-0.80;99.90;;;;;;5093502;28;19963;-69
2022/03/23 03:48:13;;;;;;;;;;;-0.90;99.90;;;;;;5098890;28;19925;-69
2022/03/23 03:50:39;;;;;;;;;;;-1.10;99.90;;;;;;5102649;28;19920;-69
2022/03/23 03:53:10;;;;;;;;;;;-1.20;99.90;;;;;;5093687;28;20382;-69
2022/03/23 03:55:36;;;;;;;;;;;-1.30;99.90;;;;;;5108886;28;20023;-69
2022/03/23 03:58:03;;;;;;;;;;;-1.40;99.90;;;;;;5093208;28;19926;-69
2022/03/23 04:00:30;;;;;;;;;;;-1.40;99.90;;;;;;5093517;28;20010;-69
2022/03/23 04:02:57;;;;;;;;;;;-1.60;99.90;;;;;;5088777;28;19920;-69
2022/03/23 04:05:24;;;;;;;;;;;-1.60;99.90;;;;;;5100697;28;19924;-68
2022/03/23 04:07:51;;;;;;;;;;;-1.70;99.90;;;;;;5091979;28;19985;-69
2022/03/23 04:10:18;;;;;;;;;;;-1.80;99.90;;;;;;5094368;28;19919;-69
2022/03/23 04:12:44;;;;;;;;;;;-1.80;99.90;;;;;;5096413;28;19924;-69
2022/03/23 04:15:14;;;;;;;;;;;-1.80;99.90;;;;;;5092253;28;19920;-68
2022/03/23 04:17:41;;;;;;;;;;;-1.80;99.90;;;;;;5092219;28;19920;-68
2022/03/23 04:20:09;;;;;;;;;;;-1.90;99.90;;;;;;5075428;28;19970;-69
2022/03/23 04:22:38;;;;;;;;;;;-2.00;99.90;;;;;;5093144;28;19963;-68
2022/03/23 04:25:07;;;;;;;;;;;-2.00;99.90;;;;;;5105371;28;20002;-68
2022/03/23 04:27:36;;;;;;;;;;;-2.00;99.90;;;;;;5108620;28;20019;-69
2022/03/23 04:30:03;;;;;;;;;;;-1.90;99.90;;;;;;5105352;28;20537;-69
2022/03/23 04:32:33;;;;;;;;;;;-2.00;99.90;;;;;;5109623;28;19984;-69
2022/03/23 04:34:59;;;;;;;;;;;-2.00;99.90;;;;;;5109156;28;19919;-68
2022/03/23 04:37:26;;;;;;;;;;;-2.00;99.90;;;;;;5111023;28;19938;-68
2022/03/23 04:39:55;;;;;;;;;;;-2.00;99.90;;;;;;5093250;28;19985;-68
2022/03/23 04:42:22;;;;;;;;;;;-1.90;99.90;;;;;;5105790;28;19967;-69
2022/03/23 04:44:48;;;;;;;;;;;-1.80;99.90;;;;;;5077282;28;19934;-68
2022/03/23 04:47:15;;;;;;;;;;;-1.60;99.90;;;;;;5111226;28;19937;-69
2022/03/23 04:49:42;;;;;;;;;;;-1.60;99.90;;;;;;5101353;28;20279;-69
2022/03/23 04:52:09;;;;;;;;;;;-1.50;99.90;;;;;;5092020;28;19967;-69
2022/03/23 04:54:36;;;;;;;;;;;-1.50;99.90;;;;;;5108775;28;20014;-69
2022/03/23 04:57:05;;;;;;;;;;;-1.50;99.90;;;;;;5103772;28;19920;-69
2022/03/23 04:59:32;;;;;;;;;;;-1.50;99.90;;;;;;5104039;28;19949;-69
2022/03/23 05:01:58;;;;;;;;;;;-1.60;99.90;;;;;;5109236;28;19920;-69
2022/03/23 05:04:25;;;;;;;;;;;-1.60;99.90;;;;;;5092687;28;19924;-69
2022/03/23 05:06:52;;;;;;;;;;;-1.60;99.90;;;;;;5091389;28;19952;-69
2022/03/23 05:09:19;;;;;;;;;;;-1.50;99.90;;;;;;5091321;28;19927;-69
2022/03/23 05:11:45;;;;;;;;;;;-1.40;99.90;;;;;;5092113;28;19966;-69
2022/03/23 05:14:12;;;;;;;;;;;-1.40;99.90;;;;;;5092761;28;19920;-69
2022/03/23 05:16:39;;;;;;;;;;;-1.20;99.90;;;;;;5091891;28;19920;-69
2022/03/23 05:19:08;;;;;;;;;;;-1.20;99.90;;;;;;5092209;28;19927;-69
2022/03/23 05:21:34;;;;;;;;;;;-1.20;99.90;;;;;;5092221;28;19965;-68
2022/03/23 05:24:04;;;;;;;;;;;-1.20;99.90;;;;;;5088523;28;19963;-69
2022/03/23 05:26:31;;;;;;;;;;;-1.20;99.90;;;;;;5092239;28;19967;-68
2022/03/23 05:28:58;;;;;;;;;;;-1.20;99.90;;;;;;5105358;28;19955;-69
2022/03/23 05:31:30;;;;;;;;;;;-1.20;99.90;;;;;;5083439;28;19920;-69
2022/03/23 05:33:57;;;;;;;;;;;-1.20;99.90;;;;;;5100425;28;19927;-69
2022/03/23 05:36:24;;;;;;;;;;;-1.20;99.90;;;;;;5108977;28;19941;-69
2022/03/23 05:38:51;;;;;;;;;;;-1.20;99.90;;;;;;5090564;28;19919;-69
2022/03/23 05:41:18;;;;;;;;;;;-1.20;99.90;;;;;;5091453;28;20007;-69
2022/03/23 05:43:44;;;;;;;;;;;-1.10;99.90;;;;;;5091840;28;19923;-69
2022/03/23 05:46:11;;;;;;;;;;;-1.10;99.90;;;;;;5105325;28;19942;-69
2022/03/23 05:48:38;;;;;;;;;;;-1.00;99.90;;;;;;5098451;28;19926;-69
2022/03/23 05:51:04;;;;;;;;;;;-0.90;99.90;;;;;;5096634;28;20308;-69
2022/03/23 05:53:31;;;;;;;;;;;-0.70;99.90;;;;;;5110217;28;19920;-69
2022/03/23 05:55:58;;;;;;;;;;;-0.60;99.90;;;;;;5083399;28;19927;-69
2022/03/23 05:58:25;;;;;;;;;;;-0.50;99.90;;;;;;5100410;28;19999;-69
2022/03/23 06:00:52;;;;;;;;;;;-0.40;99.90;;;;;;5099706;28;19924;-69
2022/03/23 06:03:19;;;;;;;;;;;-0.40;99.90;;;;;;5082501;28;19945;-69
2022/03/23 06:05:45;;;;;;;;;;;-0.30;99.90;;;;;;5110307;28;19976;-69
2022/03/23 06:08:13;;;;;;;;;;;-0.10;99.90;;;;;;5089512;28;19919;-69
2022/03/23 06:10:40;;;;;;;;;;;0.10;99.90;;;;;;5106112;28;19927;-69
2022/03/23 06:13:07;;;;;;;;;;;0.20;99.90;;;;;;5098535;28;19999;-69
2022/03/23 06:15:37;;;;;;;;;;;0.50;99.90;;;;;;5091564;28;19923;-69
2022/03/23 06:18:04;;;;;;;;;;;0.70;99.90;;;;;;5083221;28;20293;-69
2022/03/23 06:20:30;;;;;;;;;;;1.00;99.90;;;;;;5090368;28;20002;-68
2022/03/23 06:22:57;;;;;;;;;;;1.30;99.90;;;;;;5098667;28;19926;-69
2022/03/23 06:25:26;;;;;;;;;;;1.50;99.90;;;;;;5091468;28;19927;-69
2022/03/23 06:27:53;;;;;;;;;;;2.10;99.90;;;;;;5089867;28;19970;-69
2022/03/23 06:30:20;;;;;;;;;;;3.20;99.90;;;;;;5089058;28;19920;-70
2022/03/23 06:32:47;;;;;;;;;;;4.50;99.90;;;;;;5100891;28;19930;-70
2022/03/23 06:35:16;;;;;;;;;;;5.60;99.90;;;;;;5082395;28;19971;-70
2022/03/23 06:37:43;;;;;;;;;;;6.50;99.90;;;;;;5105791;28;19920;-70
2022/03/23 06:40:10;;;;;;;;;;;7.30;99.90;;;;;;5109942;28;20006;-70
2022/03/23 06:42:42;;;;;;;;;;;7.80;99.90;;;;;;5108394;28;20311;-70
2022/03/23 06:45:09;;;;;;;;;;;8.40;99.90;;;;;;5091232;28;19932;-70
2022/03/23 06:47:36;;;;;;;;;;;8.50;99.90;;;;;;5101444;28;20006;-70
2022/03/23 06:50:02;;;;;;;;;;;8.90;99.90;;;;;;5092349;28;20019;-70
2022/03/23 06:52:31;;;;;;;;;;;9.20;99.90;;;;;;5091538;28;19952;-70
2022/03/23 06:54:57;;;;;;;;;;;9.50;99.90;;;;;;5091133;28;20282;-70
2022/03/23 06:57:24;;;;;;;;;;;9.80;99.90;;;;;;5089987;28;19920;-69
2022/03/23 06:59:51;;;;;;;;;;;10.30;99.90;;;;;;5099480;28;19967;-69
2022/03/23 07:02:17;;;;;;;;;;;10.70;99.90;;;;;;5096389;28;20516;-69
2022/03/23 07:04:44;;;;;;;;;;;11.00;99.90;;;;;;5106097;28;19924;-68
2022/03/23 07:07:11;;;;;;;;;;;11.30;99.90;;;;;;5085783;28;20010;-69
2022/03/23 07:09:41;;;;;;;;;;;11.70;99.90;;;;;;5096002;28;20015;-69
2022/03/23 07:12:08;;;;;;;;;;;;;;;;;;5097957;28;19927;-69
2022/03/23 07:14:36;;;;;;;;;;;12.40;99.90;;;;;;5090845;28;20010;-69
2022/03/23 07:17:03;;;;;;;;;;;12.50;99.90;;;;;;5108006;28;19997;-68
2022/03/23 07:19:30;;;;;;;;;;;12.50;99.90;;;;;;5093946;28;20392;-69
2022/03/23 07:22:00;;;;;;;;;;;12.50;99.90;;;;;;5094027;28;20003;-68
2022/03/23 07:24:27;;;;;;;;;;;12.40;99.90;;;;;;5093452;28;19927;-68
2022/03/23 07:26:54;;;;;;;;;;;12.30;99.90;;;;;;5094258;28;19951;-68
2022/03/23 07:29:40;;;;;;;;;;;12.40;99.90;;;;;;5108758;28;19919;-68
2022/03/23 07:32:08;;;;;;;;;;;12.50;99.90;;;;;;5099871;28;19919;-68
2022/03/23 07:34:34;;;;;;;;;;;12.60;99.90;;;;;;5103156;28;19920;-68
2022/03/23 07:37:01;;;;;;;;;;;12.30;99.90;;;;;;5108408;28;20014;-68
2022/03/23 07:39:28;;;;;;;;;;;12.30;99.90;;;;;;5093788;28;19926;-68
2022/03/23 07:41:55;;;;;;;;;;;12.40;99.90;;;;;;5094462;28;19963;-68
2022/03/23 07:44:24;;;;;;;;;;;12.40;99.90;;;;;;5093450;28;20042;-68
2022/03/23 07:46:53;;;;;;;;;;;12.40;99.90;;;;;;5099994;28;20322;-68
2022/03/23 07:49:20;;;;;;;;;;;12.60;99.80;;;;;;5112382;28;20318;-68
2022/03/23 07:51:47;;;;;;;;;;;12.80;99.70;;;;;;5096030;28;19941;-69
2022/03/23 07:54:14;;;;;;;;;;;12.80;99.90;;;;;;5090817;28;19963;-69
2022/03/23 07:56:40;;;;;;;;;;;13.30;99.90;;;;;;5101318;28;19958;-69
2022/03/23 07:59:07;;;;;;;;;;;13.50;95.90;;;;;;5112354;28;20396;-69
2022/03/23 08:01:34;;;;;;;;;;;13.60;95.70;;;;;;5110417;28;20025;-69
2022/03/23 08:04:01;;;;;;;;;;;13.50;95.60;;;;;;5092269;28;19934;-69
2022/03/23 08:06:35;;;;;;;;;;;13.80;96.00;;;;;;5092231;28;20457;-69
2022/03/23 08:09:02;;;;;;;;;;;13.50;96.00;;;;;;5097934;28;19919;-69
2022/03/23 08:11:29;;;;;;;;;;;13.60;95.30;;;;;;5090711;28;20011;-69
2022/03/23 08:13:56;;;;;;;;;;;13.60;95.30;;;;;;5093408;28;19962;-69
2022/03/23 08:16:25;;;;;;;;;;;13.60;95.60;;;;;;5108453;28;19974;-69
2022/03/23 08:18:52;;;;;;;;;;;13.50;95.50;;;;;;5098819;28;19923;-69
2022/03/23 08:21:21;;;;;;;;;;;13.90;95.40;;;;;;5099760;28;19920;-69
2022/03/23 08:23:50;;;;;;;;;;;14.20;95.20;;;;;;5107868;28;20027;-68
2022/03/23 08:26:17;;;;;;;;;;;14.50;95.60;;;;;;5105393;28;20408;-69
2022/03/23 08:28:47;;;;;;;;;;;14.80;94.80;;;;;;5094907;28;19938;-69
2022/03/23 08:31:13;;;;;;;;;;;15.10;94.30;;;;;;5111533;28;20014;-69
2022/03/23 08:33:40;;;;;;;;;;;15.40;94.40;;;;;;5109420;28;19923;-69
2022/03/23 08:36:07;;;;;;;;;;;15.30;93.70;;;;;;5110225;28;20010;-68
2022/03/23 08:38:35;;;;;;;;;;;15.60;95.40;;;;;;5111462;28;19959;-68
2022/03/23 08:41:02;;;;;;;;;;;15.60;93.20;;;;;;5098282;28;19920;-67
2022/03/23 08:43:32;;;;;;;;;;;15.50;93.10;;;;;;5099343;28;20287;-68
2022/03/23 08:46:00;;;;;;;;;;;15.60;93.00;;;;;;5109891;28;19985;-68
2022/03/23 08:48:27;;;;;;;;;;;15.80;93.10;;;;;;5101372;28;19928;-68
2022/03/23 08:50:56;;;;;;;;;;;15.90;93.00;;;;;;5100952;28;19946;-68
2022/03/23 08:53:26;;;;;;;;;;;15.60;92.50;;;;;;5108944;28;20273;-68
2022/03/23 08:55:55;;;;;;;;;;;15.10;92.50;;;;;;5095222;28;19928;-67
2022/03/23 08:58:21;;;;;;;;;;;15.40;94.80;;;;;;5091619;28;19924;-68
2022/03/23 09:00:48;;;;;;;;;;;15.90;93.00;;;;;;5091883;28;19942;-68
2022/03/23 09:03:15;;;;;;;;;;;16.60;92.40;;;;;;5106539;28;19924;-67
2022/03/23 09:05:42;;;;;;;;;;;16.50;92.80;;;;;;5092054;28;19924;-67
2022/03/23 09:08:14;;;;;;;;;;;16.10;91.80;;;;;;5091937;28;20542;-68
2022/03/23 09:10:41;;;;;;;;;;;16.40;91.90;;;;;;5090958;28;19982;-68
2022/03/23 09:13:11;;;;;;;;;;;16.60;92.30;;;;;;5090930;28;19924;-68
2022/03/23 09:15:41;;;;;;;;;;;16.20;92.20;;;;;;5092085;28;19964;-67
2022/03/23 09:18:07;;;;;;;;;;;16.80;92.50;;;;;;5108919;28;20010;-68
2022/03/23 09:20:34;;;;;;;;;;;17.20;91.80;;;;;;5110383;28;19998;-68
2022/03/23 09:23:01;;;;;;;;;;;17.60;92.20;;;;;;5108888;28;19928;-68
2022/03/23 09:25:28;;;;;;;;;;;17.20;91.20;;;;;;5097318;28;19924;-68
2022/03/23 09:27:57;;;;;;;;;;;17.20;92.00;;;;;;5105448;28;19928;-68
2022/03/23 09:30:23;;;;;;;;;;;17.40;92.00;;;;;;5100105;28;19924;-68
2022/03/23 09:32:50;;;;;;;;;;;18.30;90.90;;;;;;5085770;28;19944;-68
2022/03/23 09:35:17;;;;;;;;;;;18.30;91.10;;;;;;5092314;28;19928;-68
2022/03/23 09:37:50;;;;;;;;;;;18.70;90.60;;;;;;5086928;28;19967;-68
2022/03/23 09:40:18;;;;;;;;;;;18.90;91.00;;;;;;5106552;28;19928;-67
2022/03/23 09:42:45;;;;;;;;;;;19.20;90.10;;;;;;5109769;28;20023;-67
2022/03/23 09:45:20;;;;;;;;;;;19.60;89.50;;;;;;5093919;28;20429;-68
2022/03/23 09:47:46;;;;;;;;;;;20.00;90.80;;;;;;5072972;28;20011;-68
2022/03/23 09:50:13;;;;;;;;;;;20.30;89.20;;;;;;5105103;28;19943;-67
2022/03/23 09:52:39;;;;;;;;;;;20.60;86.80;;;;;;5107882;28;19930;-67
2022/03/23 09:55:07;;;;;;;;;;;20.80;87.00;;;;;;5110264;28;20006;-68
2022/03/23 09:57:35;;;;;;;;;;;21.10;87.50;;;;;;5091809;28;19930;-68
2022/03/23 10:00:02;;;;;;;;;;;21.70;90.20;;;;;;5096943;28;20290;-67
2022/03/23 10:02:58;;;;;;;;;;;21.50;84.00;;;;;;5104735;28;20366;-67
2022/03/23 10:05:27;;;;;;;;;;;21.30;84.60;;;;;;5096822;28;19959;-68
2022/03/23 10:08:11;;;;;;;;;;;21.50;84.00;;;;;;5080994;28;20026;-67
2022/03/23 10:10:58;;;;;;;;;;;21.90;86.10;;;;;;5098795;28;19930;-68
2022/03/23 10:13:43;;;;;;;;;;;22.30;83.80;;;;;;5108562;28;19924;-68
2022/03/23 10:16:29;;;;;;;;;;;23.20;82.20;;;;;;5093961;28;20002;-68
2022/03/23 10:18:59;;;;;;;;;;;23.30;82.50;;;;;;5092650;28;20014;-68
2022/03/23 10:21:32;;;;;;;;;;;23.60;82.90;;;;;;5101921;28;19924;-68
2022/03/23 10:24:02;;;;;;;;;;;23.80;81.70;;;;;;5097904;28;19995;-68
2022/03/23 10:26:30;;;;;;;;;;;23.70;82.20;;;;;;5090948;28;20023;-67
2022/03/23 10:28:57;;;;;;;;;;;23.60;81.00;;;;;;5089717;28;19928;-67
2022/03/23 10:31:25;;;;;;;;;;;23.00;80.70;;;;;;5090600;28;19924;-67
2022/03/23 10:33:58;;;;;;;;;;;22.70;81.00;;;;;;5090176;28;20386;-68
2022/03/23 10:36:31;;;;;;;;;;;22.90;84.10;;;;;;5090945;28;19930;-67
2022/03/23 10:38:58;;;;;;;;;;;23.30;82.20;;;;;;5090346;28;19927;-68
2022/03/23 10:41:26;;;;;;;;;;;23.30;80.20;;;;;;5090598;28;19932;-67
2022/03/23 10:43:53;;;;;;;;;;;23.20;81.10;;;;;;5090492;28;19924;-67
2022/03/23 10:46:20;;;;;;;;;;;22.80;81.10;;;;;;5095038;28;19924;-67
2022/03/23 10:48:50;;;;;;;;;;;22.60;81.30;;;;;;5107547;28;20466;-68
2022/03/23 10:51:27;;;;;;;;;;;22.80;79.80;;;;;;5093610;28;19924;-67
2022/03/23 10:53:54;;;;;;;;;;;22.70;79.20;;;;;;5102828;28;19928;-68
2022/03/23 10:56:28;;;;;;;;;;;23.30;78.70;;;;;;5100529;28;19924;-69
2022/03/23 10:59:33;;;;;;;;;;;23.70;78.10;;;;;;5102435;28;19930;-67
2022/03/23 11:02:00;;;;;;;;;;;23.30;80.50;;;;;;5049477;28;19931;-68
2022/03/23 11:04:29;;;;;;;;;;;23.80;78.50;;;;;;5044734;28;19929;-68
2022/03/23 11:06:59;;;;;;;;;;;24.40;79.00;;;;;;5040662;28;19928;-67
2022/03/23 11:18:05;;;;;;;;;;;23.90;77.20;;;;;;5048477;28;20027;-67
2022/03/23 11:20:39;;;;;;;;;;;24.80;75.80;;;;;;5042735;28;19932;-67
2022/03/23 11:23:19;;;;;;;;;;;24.10;73.50;;;;;;5050106;28;19932;-67
2022/03/23 11:25:46;;;;;;;;;;;24.30;74.20;;;;;;5050553;28;19933;-67
2022/03/23 11:28:16;;;;;;;;;;;24.70;74.70;;;;;;5049506;28;19947;-67
2022/03/23 11:30:43;;;;;;;;;;;25.10;73.60;;;;;;5049702;28;19948;-67
2022/03/23 11:33:11;;;;;;;;;;;25.60;74.40;;;;;;5063917;28;19931;-68
2022/03/23 11:35:50;;;;;;;;;;;25.10;73.90;;;;;;5111986;28;19928;-67
2022/03/23 11:38:18;;;;;;;;;;;24.80;73.30;;;;;;5082728;28;19930;-67
2022/03/23 11:40:45;;;;;;;;;;;24.10;73.90;;;;;;5101085;28;19947;-67
2022/03/23 11:43:18;;;;;;;;;;;23.90;74.60;;;;;;5106311;28;19930;-67
2022/03/23 11:46:06;;;;;;;;;;;24.10;74.30;;;;;;5093562;28;19939;-67
2022/03/23 11:48:54;;;;;;;;;;;24.80;74.30;;;;;;5092134;28;20378;-67
2022/03/23 11:51:32;;;;;;;;;;;25.20;73.50;;;;;;5093711;28;19924;-67
2022/03/23 11:54:11;;;;;;;;;;;25.20;73.90;;;;;;5093120;28;20005;-67
2022/03/23 11:56:49;;;;;;;;;;;25.10;73.20;;;;;;5092599;28;20032;-68
2022/03/23 11:59:18;;;;;;;;;;;24.90;73.50;;;;;;5093052;28;20624;-67
2022/03/23 12:01:44;;;;;;;;;;;24.80;72.50;;;;;;5092219;28;19928;-67
2022/03/23 12:04:13;;;;;;;;;;;23.90;73.00;;;;;;5093304;28;20030;-67
2022/03/23 12:06:44;;;;;;;;;;;23.90;74.40;;;;;;5094216;28;20256;-67
2022/03/23 12:09:29;;;;;;;;;;;23.70;73.60;;;;;;5105593;28;20030;-67
2022/03/23 12:11:59;;;;;;;;;;;23.80;72.20;;;;;;5101095;28;19928;-67
2022/03/23 12:14:26;;;;;;;;;;;23.90;72.80;;;;;;5102386;28;19928;-67
2022/03/23 12:16:52;;;;;;;;;;;24.10;72.00;;;;;;5092107;28;19964;-66
2022/03/23 12:19:52;;;;;;;;;;;24.40;71.20;;;;;;5094315;28;19924;-66
2022/03/23 12:22:40;;;;;;;;;;;23.70;70.90;;;;;;5111607;28;19924;-66
2022/03/23 12:25:12;;;;;;;;;;;23.60;71.70;;;;;;5096413;28;19931;-67
2022/03/23 12:27:42;;;;;;;;;;;24.20;72.80;;;;;;5107090;28;20310;-67
2022/03/23 12:30:18;;;;;;;;;;;24.40;70.80;;;;;;5092916;28;20062;-67
2022/03/23 12:32:50;;;;;;;;;;;24.50;70.00;;;;;;5091863;28;19925;-66
2022/03/23 12:35:29;;;;;;;;;;;24.80;71.40;;;;;;5092356;28;19963;-67
2022/03/23 12:38:06;;;;;;;;;;;24.90;70.70;;;;;;5098930;28;20293;-67
2022/03/23 12:40:38;;;;;;;;;;;25.10;70.20;;;;;;5111101;28;19962;-67
2022/03/23 12:43:04;;;;;;;;;;;25.20;71.40;;;;;;5100855;28;19924;-67
2022/03/23 12:45:31;;;;;;;;;;;25.20;70.70;;;;;;5093360;28;19924;-67
2022/03/23 12:47:59;;;;;;;;;;;25.30;68.50;;;;;;5097165;28;19924;-67
2022/03/23 12:58:50;;;;;;;;;;;;;;;;;;5091994;28;19924;-67
2022/03/23 13:01:18;;;;;;;;;;;26.90;66.40;;;;;;5091892;28;19924;-67
2022/03/23 13:03:52;;;;;;;;;;;26.90;68.60;;;;;;5091184;28;19997;-67
2022/03/23 13:06:20;;;;;;;;;;;26.90;66.70;;;;;;5091656;28;19947;-67
2022/03/23 13:08:47;;;;;;;;;;;26.30;65.90;;;;;;5097716;28;19963;-67
2022/03/23 13:11:29;;;;;;;;;;;25.20;68.00;;;;;;5098881;28;19924;-67
2022/03/23 13:13:57;;;;;;;;;;;24.80;67.70;;;;;;5095982;28;20379;-67
2022/03/23 13:16:25;;;;;;;;;;;25.30;69.20;;;;;;5105221;28;19955;-67
2022/03/23 13:18:58;;;;;;;;;;;25.90;69.70;;;;;;5104614;28;19977;-67
2022/03/23 13:21:28;;;;;;;;;;;26.00;67.60;;;;;;5091262;28;19924;-67
2022/03/23 13:24:01;;;;;;;;;;;26.40;67.90;;;;;;5091915;28;20333;-67
2022/03/23 13:26:34;;;;;;;;;;;26.90;67.70;;;;;;5093896;28;19928;-67
2022/03/23 13:29:11;;;;;;;;;;;27.00;68.30;;;;;;5102498;28;20375;-67
2022/03/23 13:31:40;;;;;;;;;;;27.60;67.60;;;;;;5106650;27;19928;-67
2022/03/23 13:34:09;;;;;;;;;;;27.10;65.60;;;;;;5099021;28;19930;-67
2022/03/23 13:36:37;;;;;;;;;;;26.70;67.50;;;;;;5091168;28;20018;-67
2022/03/23 13:39:07;;;;;;;;;;;26.50;65.30;;;;;;5091400;28;19930;-67
2022/03/23 13:44:54;;;;;;;;;;;27.20;67.00;;;;;;5091231;28;20538;-68
2022/03/23 13:47:09;;;;;;;;;;;28.20;66.30;;;;;;5090106;28;20604;-68
2022/03/23 13:49:43;;;;;;;;;;;29.00;66.50;;;;;;5073641;28;20011;-67
2022/03/23 13:52:11;;;;;;;;;;;28.50;64.00;;;;;;5090400;28;20278;-67
2022/03/23 13:54:39;;;;;;;;;;;28.50;64.70;;;;;;5072768;28;19924;-67
2022/03/23 13:57:06;;;;;;;;;;;29.00;65.50;;;;;;5099323;28;19978;-67
2022/03/23 13:59:34;;;;;;;;;;;28.60;64.90;;;;;;5097072;28;19977;-67
2022/03/23 14:02:01;;;;;;;;;;;27.60;64.70;;;;;;5091111;28;19924;-67
2022/03/23 14:04:30;;;;;;;;;;;27.50;65.30;;;;;;5088916;28;19924;-67
2022/03/23 14:07:00;;;;;;;;;;;28.00;65.00;;;;;;5089842;28;19935;-67
2022/03/23 14:09:28;;;;;;;;;;;28.00;64.00;;;;;;5091742;28;20388;-67
2022/03/23 14:12:04;;;;;;;;;;;26.90;64.20;;;;;;5098531;28;20514;-67
2022/03/23 14:14:35;;;;;;;;;;;26.70;63.50;;;;;;5090779;28;19963;-68
2022/03/23 14:17:04;;;;;;;;;;;26.10;64.00;;;;;;5104300;28;19970;-67
2022/03/23 14:19:39;;;;;;;;;;;25.90;64.70;;;;;;5103677;28;19932;-67
2022/03/23 14:22:07;;;;;;;;;;;26.20;65.10;;;;;;5088360;28;20434;-67
2022/03/23 14:24:34;;;;;;;;;;;26.10;64.60;;;;;;5093458;28;19923;-68
2022/03/23 14:27:14;;;;;;;;;;;27.00;64.90;;;;;;5111078;28;19924;-67
2022/03/23 14:32:35;;;;;;;;;;;27.50;64.80;;;;;;5091777;28;20394;-67
2022/03/23 14:35:03;;;;;;;;;;;27.80;62.90;;;;;;5094971;28;20002;-67
2022/03/23 14:37:48;;;;;;;;;;;28.40;62.80;;;;;;5109175;28;20283;-68
2022/03/23 14:40:18;;;;;;;;;;;29.10;63.10;;;;;;5094956;28;20007;-68
2022/03/23 14:42:45;;;;;;;;;;;29.80;62.20;;;;;;5102705;28;20383;-67
2022/03/23 14:45:31;;;;;;;;;;;30.10;62.80;;;;;;5115194;28;19924;-67
2022/03/23 14:48:17;;;;;;;;;;;29.40;61.00;;;;;;5077935;28;20405;-67
2022/03/23 14:50:47;;;;;;;;;;;29.20;61.80;;;;;;5094746;28;19960;-70
2022/03/23 14:53:16;;;;;;;;;;;29.60;61.80;;;;;;5101407;28;19924;-70
2022/03/23 14:55:44;;;;;;;;;;;29.90;61.60;;;;;;5110460;28;20355;-70
2022/03/23 14:58:31;;;;;;;;;;;30.20;61.60;;;;;;5099074;28;20429;-70
2022/03/23 15:01:08;;;;;;;;;;;30.80;61.40;;;;;;5100680;28;19930;-70
2022/03/23 15:03:35;;;;;;;;;;;30.60;62.00;;;;;;5102332;28;19951;-70
2022/03/23 15:14:23;;;;;;;;;;;29.60;60.90;;;;;;5093626;28;19930;-69